West Homestead, Pennsylvania
Current Conditions -  °F | °C
As of 4:53 AM on Friday 19 Dec 2014 (Local Time) from KAGC Reporting Station
Haze Haze  
Wind Chill: -8°   Ceiling: 1000
Heat Index: -3°   Visibility: 6mi
Dew Point: -6°   Wind: 9mph
Humidity: 78%   Direction: 260°W
Pressure: 30.13"   Gusts: NA
Location:  40.3948°N, 79.9074°W
Report Text: KAGC 190953Z 26008KT 6SM HZ OVC010 M03/M06 A3013 RMK AO2 SLP222 T10281061
Loading
Personal Weather Stations






























Interactive Weather Map New forecast layout! Learn more

10-Day Weather Forecast

Advertisements
Track Severe Weather on mobile